Domov
logo

Vyskúšajte rýchly a spoľahlivý webhosting

Aktuálne počasie

LZIB - letisko Bratislava

Hodnoty namerané: 08.07.2020, 15:30 SELČ
Aktuálny čas: 08.07.2020, 15:55 SELČ
Aktualizované: pred 25 min.
Teplota: 26°C
Rosný bod: 9°C
Vietor: 17 km/h 180° (J) kolíše v rozsahu 140°-210° (JV-JJZ)
Dohľadnosť: viac ako 10 km
Stav počasia: bez zrážok
Oblačnosť: jasno
Vlhkosť vzduchu: 34 %
Tlak vzduchu: 1016 hPa
METAR: LZIB 081330Z 18009KT 140V210 CAVOK 26/09 Q1016 NOSIG

LZKZ - letisko Košice

Hodnoty namerané: 08.07.2020, 15:30 SELČ
Aktuálny čas: 08.07.2020, 15:55 SELČ
Aktualizované: pred 25 min.
Teplota: 22°C
Rosný bod: 8°C
Vietor: 11 km/h 240° (ZJZ) kolíše v rozsahu 160°-290° (JJV-ZSZ)
Dohľadnosť: viac ako 10 km
Stav počasia: bez zrážok
Oblačnosť: jasno
Vlhkosť vzduchu: 41 %
Tlak vzduchu: 1017 hPa
METAR: LZKZ 081330Z 24006KT 160V290 CAVOK 22/08 Q1017 NOSIG

LZPP - letisko Piešťany

Hodnoty namerané: 08.07.2020, 15:30 SELČ
Aktuálny čas: 08.07.2020, 15:55 SELČ
Aktualizované: pred 25 min.
Teplota: 23°C
Rosný bod: 8°C
Vietor: 13 km/h 150° (JJV) kolíše v rozsahu 120°-210° (VJV-JJZ)
Dohľadnosť: viac ako 10 km
Stav počasia: bez zrážok
Oblačnosť: jasno
Vlhkosť vzduchu: 38 %
Tlak vzduchu: 1016 hPa
METAR: LZPP 081330Z 15007KT 120V210 CAVOK 23/08 Q1016

LZTT - letisko Poprad Tatry

Hodnoty namerané: 08.07.2020, 15:30 SELČ
Aktuálny čas: 08.07.2020, 15:55 SELČ
Aktualizované: pred 25 min.
Teplota: 18°C
Rosný bod: 8°C
Vietor: 15 km/h 250° (ZJZ)
Dohľadnosť: viac ako 10 km
Stav počasia: bez zrážok
Oblačnosť: malá oblačnosť na 1524 m, oblačno na 2012 m
Základňa oblačnosti: 1524 m
Vlhkosť vzduchu: 52 %
Tlak vzduchu: 1018 hPa
METAR: LZTT 081330Z 25008KT 9999 FEW050 BKN066 18/08 Q1018 NOSIG

LZSL - letisko Sliač

Hodnoty namerané: 08.07.2020, 15:30 SELČ
Aktuálny čas: 08.07.2020, 15:55 SELČ
Aktualizované: pred 25 min.
Teplota: 23°C
Rosný bod: 8°C
Vietor: 11 km/h 160° (JJV) kolíše v rozsahu 110°-210° (VJV-JJZ)
Dohľadnosť: viac ako 10 km
Stav počasia: bez zrážok
Oblačnosť: jasno
Vlhkosť vzduchu: 38 %
Tlak vzduchu: 1017 hPa
METAR: LZSL 081330Z 16006KT 110V210 CAVOK 23/08 Q1017

LZZI - letisko Žilina

Hodnoty namerané: 08.07.2020, 15:30 SELČ
Aktuálny čas: 08.07.2020, 15:55 SELČ
Aktualizované: pred 25 min.
Teplota: 21°C
Rosný bod: 9°C
Vietor: 11 km/h 220° (JZ) kolíše v rozsahu 170°-250° (J-ZJZ)
Dohľadnosť: viac ako 10 km
Stav počasia: bez zrážok
Oblačnosť: malá oblačnosť na 1615 m, oblačno na 2438 m
Základňa oblačnosti: 1615 m
Vlhkosť vzduchu: 46 %
Tlak vzduchu: 1016 hPa
METAR: LZZI 081330Z 22006KT 170V250 9999 FEW053 BKN080 21/09 Q1016

POZNÁMKY:

SEČ - stredoeurópsky čas (UTC+1hod.)

SELČ - stredoeurópsky letný čas (UTC+2hod.)

UTC - univerzálny svetový čas, GMT, ZULU

METAR - sú pravidelné kódované letecké meteorologické správy. Tie zostavujú a zverejňujú meteorologické stanice letísk v polhodinových/hodinových intervaloch. Na tejto stránke správy METAR zo slovenských letísk nájdete už v dekódovanej podobe.

hore